Time;durP1;ratioP1;P1;durP2;ratioP2;P2;SDS_P1;SDS_P2;PMS_P1;PMS_P2;Temp;Humidity;BMP_temperature;BMP_pressure;BME280_temperature;BME280_humidity;BME280_pressure;Samples;Min_cycle;Max_cycle;Signal;HPM_P1;HPM_P2
2023/07/01 00:02:21;;;;;;;5.63;2.60;;;21.80;57.80;;;;;;5112565;28;20467;-71
2023/07/01 00:04:50;;;;;;;3.40;2.30;;;21.80;57.80;;;;;;5112513;28;20467;-71
2023/07/01 00:07:16;;;;;;;5.47;2.63;;;21.80;58.50;;;;;;5111038;28;20462;-71
2023/07/01 00:09:43;;;;;;;3.30;2.50;;;21.80;59.30;;;;;;5114586;28;20461;-72
2023/07/01 00:12:10;;;;;;;5.60;2.33;;;21.80;59.90;;;;;;5112912;28;20983;-72
2023/07/01 00:14:38;;;;;;;5.17;3.20;;;21.80;59.20;;;;;;5123592;28;20442;-72
2023/07/01 00:17:05;;;;;;;4.63;2.40;;;21.80;58.90;;;;;;5121847;28;20462;-71
2023/07/01 00:19:32;;;;;;;4.83;2.13;;;21.80;58.90;;;;;;5119333;28;20482;-71
2023/07/01 00:22:01;;;;;;;4.27;2.97;;;21.70;58.80;;;;;;5115574;28;20479;-72
2023/07/01 00:24:29;;;;;;;3.83;2.50;;;21.80;59.00;;;;;;5116186;28;20450;-71
2023/07/01 00:26:56;;;;;;;4.37;2.10;;;21.70;58.70;;;;;;5115996;28;20474;-72
2023/07/01 00:29:23;;;;;;;4.40;2.17;;;21.70;58.50;;;;;;5115214;28;20462;-72
2023/07/01 00:31:49;;;;;;;3.23;2.57;;;21.80;58.70;;;;;;5113200;28;20474;-72
2023/07/01 00:34:16;;;;;;;5.37;2.53;;;21.70;58.90;;;;;;5115545;28;20944;-72
2023/07/01 00:36:43;;;;;;;4.67;2.33;;;21.70;58.70;;;;;;5109236;28;20455;-71
2023/07/01 00:39:11;;;;;;;4.33;1.77;;;21.70;59.20;;;;;;5115823;28;20479;-71
2023/07/01 00:41:38;;;;;;;3.77;2.37;;;21.70;59.50;;;;;;5120723;28;20475;-72
2023/07/01 00:44:05;;;;;;;4.30;2.77;;;21.70;59.80;;;;;;5121533;28;20459;-72
2023/07/01 00:46:32;;;;;;;5.20;2.23;;;21.70;59.70;;;;;;5117488;28;20455;-72
2023/07/01 00:49:00;;;;;;;3.10;2.47;;;21.70;60.30;;;;;;5117067;28;20944;-71
2023/07/01 00:51:28;;;;;;;2.63;2.30;;;21.70;61.40;;;;;;5116230;28;20478;-71
2023/07/01 00:53:55;;;;;;;4.80;2.40;;;21.60;61.70;;;;;;5116232;28;20479;-71
2023/07/01 00:56:23;;;;;;;8.07;2.57;;;21.70;62.20;;;;;;5096891;28;20456;-71
2023/07/01 00:58:50;;;;;;;5.10;2.40;;;21.70;62.20;;;;;;5108836;28;20440;-71
2023/07/01 01:01:22;;;;;;;5.50;2.40;;;21.70;63.10;;;;;;5101059;28;20478;-73
2023/07/01 01:04:00;;;;;;;3.27;2.13;;;21.70;62.80;;;;;;5108805;28;20813;-72
2023/07/01 01:06:33;;;;;;;6.10;2.00;;;21.70;61.70;;;;;;5118326;28;20431;-71
2023/07/01 01:09:10;;;;;;;7.80;2.40;;;21.70;61.90;;;;;;5121179;28;20427;-71
2023/07/01 01:11:43;;;;;;;6.07;2.77;;;21.70;61.10;;;;;;5121494;28;20482;-72
2023/07/01 01:14:13;;;;;;;7.27;2.57;;;21.70;60.40;;;;;;5120569;28;20463;-71
2023/07/01 01:16:40;;;;;;;5.13;2.47;;;21.60;60.30;;;;;;5121300;28;20446;-71
2023/07/01 01:19:19;;;;;;;3.23;2.30;;;21.60;60.00;;;;;;5119933;28;20451;-71
2023/07/01 01:21:51;;;;;;;4.67;2.50;;;21.60;59.80;;;;;;5117369;28;20493;-71
2023/07/01 01:24:22;;;;;;;4.03;2.27;;;21.60;59.40;;;;;;5117975;28;20451;-71
2023/07/01 01:26:53;;;;;;;7.30;2.70;;;21.60;59.20;;;;;;5115831;28;20455;-71
2023/07/01 01:29:23;;;;;;;6.60;2.20;;;21.60;58.70;;;;;;5116405;28;20469;-71
2023/07/01 01:31:50;;;;;;;4.10;1.97;;;21.50;58.90;;;;;;5114066;28;20462;-72
2023/07/01 01:34:17;;;;;;;3.80;2.50;;;21.50;58.50;;;;;;5115923;28;20486;-72
2023/07/01 01:36:50;;;;;;;5.87;2.97;;;21.50;58.30;;;;;;5114108;28;20458;-72
2023/07/01 01:39:22;;;;;;;3.33;2.07;;;21.50;58.30;;;;;;5115353;28;20455;-71
2023/07/01 01:41:55;;;;;;;3.70;2.30;;;21.40;57.70;;;;;;5115546;28;20458;-72
2023/07/01 01:44:30;;;;;;;9.13;2.40;;;21.40;57.90;;;;;;5115712;28;20446;-71
2023/07/01 01:46:58;;;;;;;4.03;2.27;;;21.30;58.00;;;;;;5113507;28;20459;-72
2023/07/01 01:49:27;;;;;;;5.30;2.43;;;21.30;58.10;;;;;;5114046;28;20462;-71
2023/07/01 01:51:55;;;;;;;3.93;1.83;;;21.30;58.00;;;;;;5115690;28;20459;-71
2023/07/01 01:54:24;;;;;;;5.00;2.03;;;21.20;57.70;;;;;;5115474;28;20486;-72
2023/07/01 01:56:51;;;;;;;2.60;1.60;;;21.20;58.20;;;;;;5113355;28;20550;-72
2023/07/01 01:59:18;;;;;;;12.10;2.20;;;21.20;58.50;;;;;;5113925;28;20498;-71
2023/07/01 02:01:48;;;;;;;3.67;2.33;;;21.20;58.60;;;;;;5113465;28;20457;-72
2023/07/01 02:04:16;;;;;;;3.27;1.93;;;21.20;59.00;;;;;;5113048;28;20466;-71
2023/07/01 02:06:43;;;;;;;3.07;2.20;;;21.20;58.90;;;;;;5114706;28;20963;-71
2023/07/01 02:09:10;;;;;;;2.50;1.70;;;21.20;58.60;;;;;;5114816;28;20462;-72
2023/07/01 02:11:37;;;;;;;3.13;2.07;;;21.20;58.00;;;;;;5113737;28;20459;-72
2023/07/01 02:14:03;;;;;;;4.40;2.27;;;21.20;58.30;;;;;;5113979;28;20485;-71
2023/07/01 02:16:30;;;;;;;3.83;2.33;;;21.20;57.80;;;;;;5114652;28;20462;-71
2023/07/01 02:18:58;;;;;;;3.27;1.80;;;21.10;58.00;;;;;;5112701;28;20516;-72
2023/07/01 02:21:27;;;;;;;6.07;2.20;;;21.10;57.60;;;;;;5114175;28;20458;-72
2023/07/01 02:23:56;;;;;;;3.80;2.10;;;21.10;57.30;;;;;;5110896;28;20486;-71
2023/07/01 02:26:23;;;;;;;2.20;1.60;;;21.10;57.90;;;;;;5114669;28;20450;-71
2023/07/01 02:28:49;;;;;;;3.50;2.23;;;21.00;57.50;;;;;;5113418;28;20546;-72
2023/07/01 02:31:18;;;;;;;4.03;2.10;;;21.00;58.20;;;;;;5114605;28;20443;-71
2023/07/01 02:33:45;;;;;;;2.30;2.03;;;21.00;58.70;;;;;;5112028;28;20821;-71
2023/07/01 02:36:13;;;;;;;3.13;2.27;;;21.00;58.40;;;;;;5113311;28;21016;-72
2023/07/01 02:38:41;;;;;;;2.47;1.90;;;21.10;58.00;;;;;;5112480;28;20467;-73
2023/07/01 02:41:07;;;;;;;4.07;2.20;;;21.10;58.10;;;;;;5111795;28;20461;-71
2023/07/01 02:43:34;;;;;;;4.67;2.53;;;21.10;57.70;;;;;;5113936;28;20485;-71
2023/07/01 02:46:01;;;;;;;4.50;2.53;;;21.10;57.40;;;;;;5112238;28;20454;-72
2023/07/01 02:48:28;;;;;;;5.47;2.37;;;21.10;57.30;;;;;;5094452;28;20447;-71
2023/07/01 02:50:55;;;;;;;4.40;2.03;;;21.10;57.10;;;;;;5103332;28;20438;-71
2023/07/01 02:53:23;;;;;;;4.30;2.30;;;21.10;57.40;;;;;;5113428;28;20491;-72
2023/07/01 02:55:50;;;;;;;4.60;2.37;;;21.10;57.30;;;;;;5114256;28;20443;-71
2023/07/01 02:58:19;;;;;;;3.00;1.93;;;21.00;57.40;;;;;;5114413;28;20439;-71
2023/07/01 03:00:46;;;;;;;3.20;2.00;;;21.00;57.30;;;;;;5114141;28;20447;-72
2023/07/01 03:03:13;;;;;;;5.50;2.30;;;21.00;57.30;;;;;;5115297;28;20451;-71
2023/07/01 03:05:41;;;;;;;4.50;2.10;;;21.00;57.60;;;;;;5115939;28;20492;-71
2023/07/01 03:08:08;;;;;;;2.53;2.10;;;20.90;57.50;;;;;;5130690;28;20443;-71
2023/07/01 03:10:37;;;;;;;4.10;2.10;;;20.90;57.70;;;;;;5119952;28;20442;-72
2023/07/01 03:13:04;;;;;;;3.67;1.80;;;20.90;57.50;;;;;;5118453;28;20475;-72
2023/07/01 03:15:31;;;;;;;4.50;2.13;;;20.90;58.50;;;;;;5115838;28;20459;-72
2023/07/01 03:17:57;;;;;;;2.13;1.93;;;20.90;58.50;;;;;;5114521;28;20538;-72
2023/07/01 03:20:24;;;;;;;2.97;2.10;;;20.80;59.10;;;;;;5114691;28;20466;-71
2023/07/01 03:22:51;;;;;;;3.13;1.80;;;20.80;59.90;;;;;;5112511;28;20487;-72
2023/07/01 03:25:18;;;;;;;2.80;1.87;;;20.80;59.70;;;;;;5112522;28;20467;-73
2023/07/01 03:27:47;;;;;;;3.40;2.27;;;20.70;59.80;;;;;;5111809;28;20501;-72
2023/07/01 03:30:15;;;;;;;5.53;2.33;;;20.70;59.60;;;;;;5113042;28;20443;-72
2023/07/01 03:32:43;;;;;;;3.83;2.00;;;20.70;59.90;;;;;;5111035;28;20489;-72
2023/07/01 03:35:11;;;;;;;3.00;2.20;;;20.70;59.60;;;;;;5110330;28;20877;-72
2023/07/01 03:37:38;;;;;;;4.13;2.10;;;20.70;59.80;;;;;;5112970;28;20462;-72
2023/07/01 03:40:10;;;;;;;3.47;1.90;;;20.70;59.70;;;;;;5113031;28;20455;-71
2023/07/01 03:42:37;;;;;;;3.90;1.60;;;20.70;59.50;;;;;;5120824;28;20570;-72
2023/07/01 03:45:07;;;;;;;4.90;2.10;;;20.70;59.10;;;;;;5104620;28;20499;-72
2023/07/01 03:47:35;;;;;;;3.07;2.13;;;20.70;59.00;;;;;;5116679;28;20462;-72
2023/07/01 03:50:01;;;;;;;3.30;2.27;;;20.60;59.20;;;;;;5113513;28;20503;-72
2023/07/01 03:52:28;;;;;;;3.50;2.40;;;20.60;59.30;;;;;;5115684;28;20490;-72
2023/07/01 03:55:00;;;;;;;3.70;2.20;;;20.70;59.20;;;;;;5115067;28;20486;-72
2023/07/01 03:57:26;;;;;;;2.90;2.10;;;20.70;59.20;;;;;;5115846;28;20459;-71
2023/07/01 03:59:55;;;;;;;4.00;2.00;;;20.70;59.10;;;;;;5114222;28;20463;-71
2023/07/01 04:02:23;;;;;;;2.90;2.17;;;20.70;59.10;;;;;;5116038;28;20481;-72
2023/07/01 04:04:51;;;;;;;4.03;2.47;;;20.80;59.00;;;;;;5116474;28;20465;-71
2023/07/01 04:07:21;;;;;;;5.47;2.57;;;20.70;58.70;;;;;;5115843;28;20880;-71
2023/07/01 04:09:48;;;;;;;3.17;2.30;;;20.70;59.00;;;;;;5115028;28;20542;-71
2023/07/01 04:12:15;;;;;;;3.20;2.50;;;20.70;58.80;;;;;;5115411;28;20529;-72
2023/07/01 04:14:42;;;;;;;5.43;2.20;;;20.70;58.90;;;;;;5116109;28;20477;-71
2023/07/01 04:17:09;;;;;;;2.53;2.33;;;20.70;58.80;;;;;;5116144;28;20466;-72
2023/07/01 04:19:37;;;;;;;5.40;2.27;;;20.80;58.90;;;;;;5114121;28;20846;-72
2023/07/01 04:22:04;;;;;;;2.23;1.90;;;20.80;58.70;;;;;;5115076;28;20471;-72
2023/07/01 04:24:31;;;;;;;4.17;2.50;;;20.80;59.40;;;;;;5116181;28;20495;-72
2023/07/01 04:26:57;;;;;;;4.17;2.60;;;20.70;59.10;;;;;;5116300;28;20459;-72
2023/07/01 04:29:24;;;;;;;6.17;2.10;;;20.70;59.40;;;;;;5116677;28;20455;-72
2023/07/01 04:31:51;;;;;;;8.23;2.40;;;20.80;59.50;;;;;;5112640;28;20462;-72
2023/07/01 04:34:19;;;;;;;4.60;2.17;;;20.80;59.40;;;;;;5098419;28;20483;-72
2023/07/01 04:36:48;;;;;;;7.83;2.17;;;20.90;59.20;;;;;;5097655;28;20466;-71
2023/07/01 04:39:14;;;;;;;3.40;2.30;;;20.90;59.40;;;;;;5096824;28;20455;-72
2023/07/01 04:41:41;;;;;;;2.97;2.27;;;20.90;59.60;;;;;;5096501;28;20945;-74
2023/07/01 04:44:08;;;;;;;3.07;2.50;;;21.00;59.90;;;;;;5096826;28;20455;-73
2023/07/01 04:46:35;;;;;;;2.87;1.93;;;21.10;60.30;;;;;;5097042;28;20452;-75
2023/07/01 04:49:02;;;;;;;2.87;2.50;;;21.10;59.50;;;;;;5095645;28;20455;-75
2023/07/01 04:51:29;;;;;;;3.47;2.43;;;21.10;59.20;;;;;;5097221;28;20450;-77
2023/07/01 04:53:57;;;;;;;3.80;2.60;;;21.20;59.30;;;;;;5096973;28;20479;-72
2023/07/01 04:56:25;;;;;;;4.50;2.93;;;21.20;58.90;;;;;;5095537;28;20444;-72
2023/07/01 04:58:53;;;;;;;5.60;2.10;;;21.20;59.00;;;;;;5095580;28;20448;-72
2023/07/01 05:01:20;;;;;;;3.17;1.93;;;21.20;59.00;;;;;;5095911;28;20538;-72
2023/07/01 05:03:47;;;;;;;5.60;2.50;;;21.20;59.20;;;;;;5096459;28;20536;-72
2023/07/01 05:06:14;;;;;;;3.30;2.40;;;21.20;59.70;;;;;;5096635;28;20444;-72
2023/07/01 05:08:41;;;;;;;4.60;2.27;;;21.20;59.20;;;;;;5096721;28;20452;-71
2023/07/01 05:11:09;;;;;;;4.00;2.30;;;21.20;59.20;;;;;;5095983;28;20455;-72
2023/07/01 05:13:36;;;;;;;4.27;2.77;;;21.20;59.50;;;;;;5095699;28;20492;-72
2023/07/01 05:16:02;;;;;;;5.33;2.77;;;21.20;60.20;;;;;;5095478;28;20448;-72
2023/07/01 05:18:29;;;;;;;7.20;2.57;;;21.20;60.40;;;;;;5105168;28;20447;-72
2023/07/01 05:20:56;;;;;;;4.90;1.90;;;21.20;60.40;;;;;;5103072;28;20449;-72
2023/07/01 05:23:23;;;;;;;4.80;2.20;;;21.20;60.90;;;;;;5116380;28;20975;-72
2023/07/01 05:25:50;;;;;;;4.80;2.40;;;21.20;60.70;;;;;;5115694;27;20443;-71
2023/07/01 05:28:18;;;;;;;9.83;3.33;;;21.20;60.70;;;;;;5116059;28;20467;-72
2023/07/01 05:30:45;;;;;;;6.50;2.23;;;21.30;61.40;;;;;;5115896;28;20450;-71
2023/07/01 05:33:12;;;;;;;5.50;2.03;;;21.30;61.40;;;;;;5116197;28;20516;-71
2023/07/01 05:35:39;;;;;;;3.70;2.60;;;21.30;61.80;;;;;;5115586;28;20473;-71
2023/07/01 05:38:09;;;;;;;3.87;2.70;;;21.40;62.20;;;;;;5116041;28;20886;-69
2023/07/01 05:40:36;;;;;;;3.40;2.20;;;21.30;61.30;;;;;;5116395;28;20450;-70
2023/07/01 05:43:05;;;;;;;3.43;1.90;;;21.10;61.50;;;;;;5116004;28;20459;-69
2023/07/01 05:45:33;;;;;;;4.37;2.17;;;21.00;62.10;;;;;;5116197;28;20443;-68
2023/07/01 05:48:00;;;;;;;4.00;1.83;;;21.10;62.00;;;;;;5115800;28;20457;-69
2023/07/01 05:50:26;;;;;;;4.53;1.87;;;21.20;61.80;;;;;;5115784;28;20453;-69
2023/07/01 05:52:53;;;;;;;3.93;1.93;;;21.40;62.20;;;;;;5115653;28;20469;-70
2023/07/01 05:55:20;;;;;;;2.10;1.70;;;21.40;63.10;;;;;;5115478;28;20470;-70
2023/07/01 05:57:47;;;;;;;5.20;2.50;;;21.30;63.90;;;;;;5115787;28;20447;-70
2023/07/01 06:00:15;;;;;;;3.27;2.10;;;21.40;64.70;;;;;;5115585;28;20451;-68
2023/07/01 06:02:44;;;;;;;2.00;1.70;;;21.40;65.70;;;;;;5115343;28;20477;-69
2023/07/01 06:05:10;;;;;;;3.00;2.30;;;21.50;65.70;;;;;;5115634;28;20800;-69
2023/07/01 06:07:37;;;;;;;3.27;2.20;;;21.60;65.90;;;;;;5114751;28;20450;-69
2023/07/01 06:10:05;;;;;;;3.20;2.00;;;21.60;65.80;;;;;;5115068;28;20466;-68
2023/07/01 06:12:31;;;;;;;3.80;2.00;;;21.70;65.60;;;;;;5115034;28;20470;-68
2023/07/01 06:14:58;;;;;;;3.80;1.90;;;21.70;66.00;;;;;;5114753;28;20544;-68
2023/07/01 06:17:26;;;;;;;5.30;2.43;;;21.70;66.00;;;;;;5114701;28;20453;-69
2023/07/01 06:19:55;;;;;;;2.40;1.90;;;21.80;66.50;;;;;;5114598;28;20519;-68
2023/07/01 06:22:22;;;;;;;2.97;1.90;;;21.80;66.30;;;;;;5114740;28;20473;-69
2023/07/01 06:24:49;;;;;;;2.23;1.93;;;21.80;66.30;;;;;;5114291;28;20439;-69
2023/07/01 06:27:16;;;;;;;3.50;1.97;;;21.90;66.50;;;;;;5114253;28;20789;-69
2023/07/01 06:29:43;;;;;;;4.20;2.23;;;21.90;66.60;;;;;;5114350;28;20449;-69
2023/07/01 06:32:10;;;;;;;2.60;1.67;;;22.00;66.60;;;;;;5114639;28;20478;-69
2023/07/01 06:34:36;;;;;;;5.70;2.20;;;22.10;66.90;;;;;;5119693;28;20489;-69
2023/07/01 06:37:05;;;;;;;3.97;1.80;;;22.20;68.40;;;;;;5095988;28;20463;-67
2023/07/01 06:39:32;;;;;;;3.90;2.30;;;22.10;69.60;;;;;;5094512;28;20937;-69
2023/07/01 06:42:00;;;;;;;2.40;1.70;;;22.00;70.70;;;;;;5093992;28;20467;-69
2023/07/01 06:44:27;;;;;;;1.93;1.83;;;21.90;72.10;;;;;;5094132;28;20439;-69
2023/07/01 06:46:54;;;;;;;3.70;2.07;;;21.80;72.70;;;;;;5094031;28;20447;-70
2023/07/01 06:49:21;;;;;;;5.90;1.90;;;21.70;73.50;;;;;;5094020;28;20451;-71
2023/07/01 06:51:48;;;;;;;2.10;1.87;;;21.70;73.80;;;;;;5093908;28;20451;-71
2023/07/01 06:54:16;;;;;;;1.93;1.77;;;21.60;74.40;;;;;;5093550;28;20479;-71
2023/07/01 06:56:43;;;;;;;2.50;2.03;;;21.60;75.10;;;;;;5093884;28;20520;-71
2023/07/01 06:59:10;;;;;;;5.70;1.90;;;21.60;75.40;;;;;;5093792;28;20452;-71
2023/07/01 07:01:36;;;;;;;4.47;2.67;;;21.60;76.70;;;;;;5093528;28;20439;-71
2023/07/01 07:04:03;;;;;;;4.60;2.23;;;21.60;76.80;;;;;;5093867;28;20440;-70
2023/07/01 07:06:30;;;;;;;3.87;1.70;;;21.60;76.60;;;;;;5093667;28;20447;-71
2023/07/01 07:08:57;;;;;;;3.80;1.73;;;21.50;77.00;;;;;;5093721;28;20443;-71
2023/07/01 07:11:25;;;;;;;2.37;1.70;;;21.40;76.20;;;;;;5094194;28;20554;-71
2023/07/01 07:13:52;;;;;;;4.53;1.90;;;21.40;78.00;;;;;;5093941;28;20470;-71
2023/07/01 07:16:19;;;;;;;1.93;1.50;;;21.40;77.90;;;;;;5092059;28;20473;-71
2023/07/01 07:18:45;;;;;;;1.90;1.43;;;21.30;78.30;;;;;;5093790;28;20470;-71
2023/07/01 07:21:12;;;;;;;2.00;1.77;;;21.30;78.50;;;;;;5097612;28;20440;-72
2023/07/01 07:23:39;;;;;;;4.93;1.73;;;21.30;78.40;;;;;;5116820;28;20970;-70
2023/07/01 07:26:07;;;;;;;3.50;2.23;;;21.30;78.40;;;;;;5123561;28;20483;-70
2023/07/01 07:28:38;;;;;;;3.77;1.97;;;21.30;79.50;;;;;;5127890;28;20454;-70
2023/07/01 07:31:05;;;;;;;2.43;1.90;;;21.10;79.40;;;;;;5122274;28;20450;-70
2023/07/01 07:33:33;;;;;;;4.50;1.50;;;21.20;80.50;;;;;;5119300;28;20477;-71
2023/07/01 07:35:59;;;;;;;2.47;1.80;;;21.10;80.20;;;;;;5118571;28;20478;-71
2023/07/01 07:38:26;;;;;;;4.30;1.60;;;21.00;81.00;;;;;;5119018;28;20453;-71
2023/07/01 07:40:53;;;;;;;3.23;2.00;;;21.10;82.00;;;;;;5118146;28;20496;-71
2023/07/01 07:43:20;;;;;;;1.80;1.33;;;21.00;81.60;;;;;;5117911;28;20478;-70
2023/07/01 07:45:48;;;;;;;3.27;2.23;;;21.00;82.40;;;;;;5117865;28;20449;-70
2023/07/01 07:48:15;;;;;;;2.73;1.90;;;21.10;82.70;;;;;;5117562;28;20446;-70
2023/07/01 07:50:42;;;;;;;2.00;1.80;;;21.20;82.30;;;;;;5117439;28;20538;-71
2023/07/01 07:53:08;;;;;;;6.07;2.20;;;21.30;82.50;;;;;;5117734;28;20462;-71
2023/07/01 07:55:35;;;;;;;7.30;1.67;;;21.30;82.60;;;;;;5117099;28;21009;-71
2023/07/01 07:58:02;;;;;;;5.07;1.80;;;21.40;82.60;;;;;;5117159;28;20447;-71
2023/07/01 08:00:29;;;;;;;6.00;1.60;;;21.40;82.80;;;;;;5117443;28;20454;-71
2023/07/01 08:02:57;;;;;;;2.60;1.40;;;21.60;82.10;;;;;;5117381;28;20474;-71
2023/07/01 08:05:24;;;;;;;2.03;1.10;;;21.60;80.90;;;;;;5117450;28;20446;-71
2023/07/01 08:07:52;;;;;;;1.60;1.20;;;21.60;80.40;;;;;;5118177;28;20485;-71
2023/07/01 08:10:19;;;;;;;3.20;1.50;;;21.60;80.80;;;;;;5117302;28;20861;-71
2023/07/01 08:12:47;;;;;;;2.20;1.40;;;21.70;80.90;;;;;;5117208;28;20466;-71
2023/07/01 08:15:13;;;;;;;4.43;1.20;;;21.70;81.20;;;;;;5116995;28;20489;-71
2023/07/01 08:17:40;;;;;;;0.97;0.97;;;21.60;80.90;;;;;;5117112;28;20450;-71
2023/07/01 08:20:11;;;;;;;1.13;1.03;;;21.70;81.70;;;;;;5116361;28;20450;-71
2023/07/01 08:22:38;;;;;;;3.33;1.00;;;21.70;81.50;;;;;;5116923;28;20459;-71
2023/07/01 08:25:05;;;;;;;1.80;1.27;;;21.70;82.00;;;;;;5116398;28;20940;-70
2023/07/01 08:27:32;;;;;;;3.07;1.30;;;21.70;81.80;;;;;;5116624;28;21024;-70
2023/07/01 08:29:59;;;;;;;2.33;0.83;;;21.70;81.70;;;;;;5116470;28;20450;-70
2023/07/01 08:32:26;;;;;;;1.47;0.90;;;21.60;82.00;;;;;;5116980;28;20478;-71
2023/07/01 08:34:52;;;;;;;1.10;0.83;;;21.50;83.60;;;;;;5117910;28;20483;-71
2023/07/01 08:37:22;;;;;;;1.37;0.90;;;21.40;84.30;;;;;;5120339;28;20442;-71
2023/07/01 08:39:48;;;;;;;1.10;1.00;;;21.30;85.80;;;;;;5121817;28;20450;-72
2023/07/01 08:42:23;;;;;;;4.30;1.00;;;21.10;87.50;;;;;;5121347;28;20471;-73
2023/07/01 08:44:51;;;;;;;1.13;0.80;;;21.00;89.20;;;;;;5120759;28;20453;-73
2023/07/01 08:47:19;;;;;;;2.90;1.00;;;21.10;90.00;;;;;;5121023;28;20527;-72
2023/07/01 08:49:50;;;;;;;1.20;0.80;;;21.10;90.30;;;;;;5123025;28;20803;-71
2023/07/01 08:52:20;;;;;;;0.67;0.67;;;21.00;90.40;;;;;;5126173;28;20474;-71
2023/07/01 08:54:49;;;;;;;1.47;0.67;;;21.00;90.80;;;;;;5125553;28;20823;-71
2023/07/01 08:57:16;;;;;;;3.30;1.03;;;21.00;90.70;;;;;;5124522;28;20446;-71
2023/07/01 08:59:44;;;;;;;1.43;1.10;;;21.10;90.60;;;;;;5123930;27;20502;-71
2023/07/01 09:02:15;;;;;;;1.70;0.87;;;21.20;90.70;;;;;;5122837;28;20470;-71
2023/07/01 09:04:42;;;;;;;2.83;0.87;;;21.30;90.00;;;;;;5122531;28;20443;-71
2023/07/01 09:07:10;;;;;;;2.40;0.50;;;21.40;90.00;;;;;;5120840;28;20451;-68
2023/07/01 09:09:38;;;;;;;1.80;0.73;;;21.50;88.20;;;;;;5120430;28;20478;-70
2023/07/01 09:12:08;;;;;;;3.23;0.90;;;21.50;88.10;;;;;;5117742;28;20459;-67
2023/07/01 09:14:57;;;;;;;1.30;0.83;;;21.30;88.50;;;;;;5120214;28;20473;-67
2023/07/01 09:17:28;;;;;;;1.07;0.80;;;21.20;89.40;;;;;;5119257;28;20540;-66
2023/07/01 09:19:58;;;;;;;1.97;0.60;;;21.00;90.40;;;;;;5117954;28;20463;-67
2023/07/01 09:22:25;;;;;;;1.63;0.70;;;20.90;90.90;;;;;;5118077;28;20466;-67
2023/07/01 09:24:52;;;;;;;5.40;0.90;;;20.90;90.80;;;;;;5117066;28;20503;-66
2023/07/01 09:27:20;;;;;;;1.47;0.70;;;20.80;90.80;;;;;;5117247;28;20818;-65
2023/07/01 09:29:47;;;;;;;0.70;0.60;;;20.80;91.30;;;;;;5117815;28;20443;-66
2023/07/01 09:32:28;;;;;;;1.90;0.50;;;20.70;92.10;;;;;;5118409;28;20473;-66
2023/07/01 09:34:57;;;;;;;0.80;0.67;;;20.70;92.80;;;;;;5116929;28;20471;-66
2023/07/01 09:37:24;;;;;;;1.90;0.40;;;20.50;92.90;;;;;;5100921;28;20443;-66
2023/07/01 09:39:51;;;;;;;1.43;0.73;;;20.60;93.30;;;;;;5100958;28;20839;-65
2023/07/01 09:42:20;;;;;;;3.50;0.60;;;20.60;93.40;;;;;;5098850;28;20471;-66
2023/07/01 09:45:06;;;;;;;0.40;0.40;;;20.60;93.70;;;;;;5098557;28;20846;-65
2023/07/01 09:47:33;;;;;;;0.60;0.60;;;20.60;94.30;;;;;;5097898;28;20472;-66
2023/07/01 09:50:01;;;;;;;0.50;0.50;;;20.70;94.30;;;;;;5097000;28;20444;-66
2023/07/01 09:52:31;;;;;;;1.07;0.40;;;20.70;94.10;;;;;;5096974;28;20456;-66
2023/07/01 09:55:00;;;;;;;2.00;0.40;;;20.80;93.90;;;;;;5097342;28;20432;-66
2023/07/01 09:57:29;;;;;;;0.70;0.40;;;20.90;93.50;;;;;;5094950;28;20448;-66
2023/07/01 09:59:56;;;;;;;0.40;0.40;;;21.00;93.10;;;;;;5096348;28;20494;-66
2023/07/01 10:02:23;;;;;;;0.40;0.40;;;21.20;92.40;;;;;;5095701;28;20463;-67
2023/07/01 10:04:51;;;;;;;1.63;1.23;;;21.40;92.00;;;;;;5095390;28;20444;-67
2023/07/01 10:07:18;;;;;;;1.27;0.40;;;21.60;91.40;;;;;;5095703;28;20486;-67
2023/07/01 10:09:46;;;;;;;2.20;0.50;;;21.80;90.60;;;;;;5095077;28;20447;-67
2023/07/01 10:12:15;;;;;;;0.93;0.40;;;21.80;90.20;;;;;;5095205;28;20538;-66
2023/07/01 10:14:47;;;;;;;0.67;0.30;;;21.90;90.70;;;;;;5095027;28;20451;-66
2023/07/01 10:17:15;;;;;;;1.43;0.53;;;21.90;90.70;;;;;;5094829;28;20416;-66
2023/07/01 10:19:46;;;;;;;0.40;0.40;;;21.90;90.60;;;;;;5094217;28;20451;-66
2023/07/01 10:22:23;;;;;;;0.60;0.60;;;22.10;90.20;;;;;;5094515;28;20467;-67
2023/07/01 10:25:01;;;;;;;0.40;0.40;;;22.20;90.00;;;;;;5094214;28;20443;-66
2023/07/01 10:28:04;;;;;;;0.40;0.40;;;22.30;88.60;;;;;;5094457;28;20531;-66
2023/07/01 10:31:04;;;;;;;0.90;0.50;;;22.40;89.70;;;;;;5091152;28;20474;-67
2023/07/01 10:34:05;;;;;;;4.80;0.50;;;22.10;90.80;;;;;;5094176;28;20464;-66
2023/07/01 10:36:36;;;;;;;2.57;0.50;;;21.80;91.10;;;;;;5031977;28;20469;-66
2023/07/01 10:39:31;;;;;;;0.70;0.40;;;21.70;91.60;;;;;;5032077;28;20561;-66
2023/07/01 10:41:57;;;;;;;1.60;0.50;;;21.70;92.30;;;;;;5072892;28;20468;-66
2023/07/01 10:44:25;;;;;;;0.77;0.43;;;21.50;92.40;;;;;;5094351;28;20455;-65
2023/07/01 10:47:18;;;;;;;1.03;0.50;;;21.30;92.90;;;;;;5093945;28;20963;-66
2023/07/01 10:50:03;;;;;;;1.13;0.50;;;21.20;93.30;;;;;;5096559;28;20514;-66
2023/07/01 10:52:35;;;;;;;0.60;0.40;;;21.00;93.30;;;;;;5097155;28;20471;-65
2023/07/01 10:55:02;;;;;;;1.47;0.70;;;20.90;93.80;;;;;;5099237;28;20519;-65
2023/07/01 10:57:30;;;;;;;2.23;0.60;;;20.70;94.10;;;;;;5097886;28;20523;-66
2023/07/01 11:00:30;;;;;;;2.43;0.83;;;20.70;94.50;;;;;;5097773;28;20447;-66
2023/07/01 11:02:57;;;;;;;0.90;0.80;;;20.70;94.50;;;;;;5094397;28;20459;-66
2023/07/01 11:05:29;;;;;;;1.50;0.90;;;20.90;94.10;;;;;;5094493;28;20450;-70
2023/07/01 11:08:07;;;;;;;1.90;0.90;;;21.20;93.60;;;;;;5094371;28;20830;-70
2023/07/01 11:10:35;;;;;;;0.83;0.60;;;21.40;92.50;;;;;;5094248;28;20428;-70
2023/07/01 11:13:02;;;;;;;0.80;0.80;;;21.60;92.00;;;;;;5094560;28;20468;-70
2023/07/01 11:15:29;;;;;;;1.40;0.80;;;21.80;91.60;;;;;;5094536;28;20479;-70
2023/07/01 11:17:57;;;;;;;4.87;0.77;;;21.80;91.10;;;;;;5093393;28;20455;-69
2023/07/01 11:20:26;;;;;;;2.27;0.70;;;22.00;90.80;;;;;;5093700;28;20465;-69
2023/07/01 11:22:52;;;;;;;1.47;0.50;;;22.10;90.60;;;;;;5093043;28;20471;-68
2023/07/01 11:25:21;;;;;;;1.40;0.90;;;22.30;90.20;;;;;;5093463;28;20962;-69
2023/07/01 11:27:47;;;;;;;1.63;0.80;;;22.40;89.10;;;;;;5093252;28;20458;-69
2023/07/01 11:30:29;;;;;;;1.40;0.70;;;22.60;88.70;;;;;;5093589;28;20471;-68
2023/07/01 11:32:56;;;;;;;1.67;0.80;;;22.70;87.60;;;;;;5093474;28;20510;-68
2023/07/01 11:35:22;;;;;;;2.67;1.07;;;22.70;87.40;;;;;;5093482;28;20454;-68
2023/07/01 11:37:50;;;;;;;6.20;0.93;;;22.70;87.00;;;;;;5093324;28;20448;-68
2023/07/01 11:40:37;;;;;;;3.13;0.60;;;22.70;86.40;;;;;;5093413;28;20440;-68
2023/07/01 11:43:05;;;;;;;1.80;0.73;;;22.60;86.40;;;;;;5093550;28;20467;-69
2023/07/01 11:45:46;;;;;;;3.20;0.77;;;22.40;86.90;;;;;;5102084;28;20447;-70
2023/07/01 11:48:13;;;;;;;1.67;1.00;;;22.40;87.50;;;;;;5097232;28;20900;-67
2023/07/01 11:50:51;;;;;;;7.33;0.90;;;22.40;88.00;;;;;;5097423;28;20435;-68
2023/07/01 11:53:19;;;;;;;2.37;1.00;;;22.40;87.40;;;;;;5096072;28;20459;-69
2023/07/01 11:55:46;;;;;;;4.70;0.87;;;22.50;87.20;;;;;;5094720;28;20483;-69
2023/07/01 11:58:30;;;;;;;10.30;0.97;;;22.60;86.80;;;;;;5093273;28;20929;-69
2023/07/01 12:00:57;;;;;;;2.10;0.60;;;22.70;86.10;;;;;;5092422;28;20468;-69
2023/07/01 12:03:24;;;;;;;2.63;1.00;;;22.80;84.90;;;;;;5093695;28;20479;-69
2023/07/01 12:05:51;;;;;;;2.70;0.80;;;22.90;85.70;;;;;;5095437;28;20439;-68
2023/07/01 12:08:19;;;;;;;1.63;0.90;;;23.10;84.80;;;;;;5097669;28;20450;-68
2023/07/01 12:10:46;;;;;;;0.80;0.73;;;23.20;84.50;;;;;;5096880;28;20811;-69
2023/07/01 12:13:30;;;;;;;1.27;0.93;;;23.20;83.80;;;;;;5097595;28;20479;-69
2023/07/01 12:15:57;;;;;;;2.23;0.90;;;23.30;83.00;;;;;;5097351;28;20479;-69
2023/07/01 12:18:27;;;;;;;1.93;0.80;;;23.20;83.10;;;;;;5101496;28;20450;-69
2023/07/01 12:20:54;;;;;;;8.57;1.10;;;23.30;82.80;;;;;;5098359;28;20459;-69
2023/07/01 12:23:23;;;;;;;1.67;0.80;;;23.30;82.70;;;;;;5097037;28;20464;-69
2023/07/01 12:25:50;;;;;;;3.47;0.80;;;23.10;82.80;;;;;;5096419;28;20448;-69
2023/07/01 12:28:17;;;;;;;5.77;0.87;;;23.10;84.50;;;;;;5078511;28;20443;-69
2023/07/01 12:30:44;;;;;;;1.33;0.80;;;23.10;84.10;;;;;;5096529;28;20458;-69
2023/07/01 12:33:11;;;;;;;2.27;0.97;;;23.20;84.00;;;;;;5096479;28;20502;-69
2023/07/01 12:35:40;;;;;;;1.37;1.07;;;23.20;84.00;;;;;;5096055;28;20968;-69
2023/07/01 12:38:12;;;;;;;3.20;0.93;;;23.30;83.40;;;;;;5097169;28;20463;-74
2023/07/01 12:40:41;;;;;;;1.73;1.17;;;23.30;83.70;;;;;;5098352;28;20443;-74
2023/07/01 12:43:08;;;;;;;1.33;0.80;;;23.40;83.00;;;;;;5096865;28;20478;-70
2023/07/01 12:45:35;;;;;;;2.00;1.00;;;23.30;83.10;;;;;;5096429;28;20475;-70
2023/07/01 12:48:02;;;;;;;3.20;0.97;;;23.20;83.60;;;;;;5095929;28;20444;-70
2023/07/01 12:50:29;;;;;;;3.50;0.90;;;23.10;83.80;;;;;;5096599;28;20455;-70
2023/07/01 12:52:57;;;;;;;3.33;1.03;;;23.10;84.60;;;;;;5095818;28;21026;-70
2023/07/01 12:55:25;;;;;;;2.00;0.80;;;23.20;85.70;;;;;;5096406;28;20534;-69
2023/07/01 12:57:53;;;;;;;3.33;0.83;;;23.30;86.30;;;;;;5096165;28;20479;-69